Time;durP1;ratioP1;P1;durP2;ratioP2;P2;SDS_P1;SDS_P2;PMS_P1;PMS_P2;Temp;Humidity;BMP_temperature;BMP_pressure;BME280_temperature;BME280_humidity;BME280_pressure;Samples;Min_cycle;Max_cycle;Signal;HPM_P1;HPM_P2
2020/12/01 05:02:50;;;;;;;30.13;16.27;;;;;;;1.12;74.86;99967.09;4927386;23;20082;-57
2020/12/01 05:05:31;;;;;;;31.83;16.75;;;;;;;1.12;75.11;99951.97;4952069;28;20073;-57
2020/12/01 05:08:17;;;;;;;29.90;15.57;;;;;;;1.01;74.50;99953.13;4968756;28;20076;-58
2020/12/01 05:10:48;;;;;;;35.25;17.85;;;;;;;1.10;74.13;99959.28;4940736;28;20043;-58
2020/12/01 05:13:20;;;;;;;33.05;17.73;;;;;;;1.06;74.68;99961.44;4930779;29;20401;-57
2020/12/01 05:15:50;;;;;;;30.88;17.52;;;;;;;1.04;74.09;99959.91;4967201;28;20125;-57
2020/12/01 05:18:25;;;;;;;26.60;16.08;;;;;;;1.12;74.70;99954.63;4968724;28;20030;-57
2020/12/01 05:20:55;;;;;;;30.92;16.45;;;;;;;1.23;73.68;99950.81;4971337;28;20407;-57
2020/12/01 05:23:42;;;;;;;31.05;18.15;;;;;;;1.11;74.51;99957.44;4945148;28;20073;-57
2020/12/01 05:26:13;;;;;;;31.83;17.42;;;;;;;1.18;73.52;99964.59;4951786;28;20176;-57
2020/12/01 05:28:48;;;;;;;33.45;17.05;;;;;;;1.14;74.31;99963.28;4926930;28;20051;-57
2020/12/01 05:31:18;;;;;;;35.28;18.35;;;;;;;1.27;74.21;99976.91;4923612;28;20105;-57
2020/12/01 05:33:44;;;;;;;32.75;18.17;;;;;;;1.09;73.68;99977.09;4940537;28;20051;-57
2020/12/01 05:36:28;;;;;;;33.53;18.65;;;;;;;1.17;73.59;99975.41;4924495;28;20045;-56
2020/12/01 05:39:17;;;;;;;33.75;18.33;;;;;;;1.24;73.88;99971.94;4920870;28;20412;-58
2020/12/01 05:41:46;;;;;;;32.97;18.38;;;;;;;1.22;74.40;99971.28;4931160;28;20065;-57
2020/12/01 05:44:16;;;;;;;33.08;18.40;;;;;;;1.22;73.59;99965.94;4935019;28;20069;-57
2020/12/01 05:46:48;;;;;;;30.08;17.83;;;;;;;1.16;74.99;99965.75;4955083;28;20081;-57
2020/12/01 05:49:30;;;;;;;33.55;18.77;;;;;;;1.24;75.57;99968.47;4967028;28;20038;-57
2020/12/01 05:52:16;;;;;;;;;;;;;;;1.22;75.78;99979.25;4938947;28;20057;-57
2020/12/01 05:54:45;;;;;;;33.47;18.13;;;;;;;1.28;74.62;99983.09;4925418;29;19918;-58
2020/12/01 05:57:26;;;;;;;32.83;18.33;;;;;;;1.36;75.23;99978.63;4948470;28;20035;-57
2020/12/01 06:00:07;;;;;;;35.30;17.15;;;;;;;1.27;74.62;99986.78;4950773;28;20381;-57
2020/12/01 06:03:05;;;;;;;35.03;19.10;;;;;;;1.30;74.21;99997.06;4950761;28;20038;-58
2020/12/01 06:05:30;;;;;;;37.28;19.95;;;;;;;1.42;74.03;99980.59;4961275;28;20039;-57
2020/12/01 06:08:10;;;;;;;33.38;18.65;;;;;;;1.46;75.21;99989.09;4947613;28;20559;-57
2020/12/01 06:10:45;;;;;;;38.50;18.95;;;;;;;1.61;74.64;99989.28;4945555;28;20035;-57
2020/12/01 06:13:31;;;;;;;32.65;18.48;;;;;;;1.52;74.42;99991.09;4931422;28;20138;-57
2020/12/01 06:16:17;;;;;;;32.50;18.38;;;;;;;1.45;74.01;99990.94;4943102;28;20039;-56
2020/12/01 06:18:59;;;;;;;34.20;18.48;;;;;;;1.39;75.43;99994.25;4954270;28;20030;-56
2020/12/01 06:21:43;;;;;;;;;;;;;;;1.39;74.12;100001.41;4948781;28;20093;-55
2020/12/01 06:24:31;;;;;;;34.10;18.35;;;;;;;1.50;74.39;100006.41;4944124;28;20034;-57
2020/12/01 06:27:25;;;;;;;35.55;18.70;;;;;;;1.48;73.99;100003.09;4933684;28;20045;-57
2020/12/01 06:29:56;;;;;;;31.23;17.70;;;;;;;1.45;74.12;100006.91;4958068;28;20477;-58
2020/12/01 06:32:56;;;;;;;33.50;16.88;;;;;;;1.34;74.67;100014.41;4929069;28;20245;-57
2020/12/01 06:36:06;;;;;;;36.97;19.40;;;;;;;1.39;74.60;100020.03;4926457;29;20040;-58
2020/12/01 06:39:03;;;;;;;34.75;18.73;;;;;;;1.20;76.08;100010.53;4870779;29;20104;-58
2020/12/01 06:41:37;;;;;;;37.70;19.85;;;;;;;1.17;75.91;100010.03;4892113;29;20585;-58
2020/12/01 06:44:12;;;;;;;36.58;19.73;;;;;;;1.14;76.09;100011.22;4926453;28;20129;-57
2020/12/01 06:46:53;;;;;;;37.25;19.65;;;;;;;1.13;76.55;100008.72;4934549;28;20061;-58
2020/12/01 06:49:27;;;;;;;32.70;18.70;;;;;;;1.13;76.64;100008.72;4937262;28;20035;-57
2020/12/01 06:51:59;;;;;;;30.38;16.35;;;;;;;1.03;76.53;100004.38;4917163;28;20293;-57
2020/12/01 06:54:25;;;;;;;36.15;18.98;;;;;;;1.09;76.52;100009.03;4927970;29;20063;-57
2020/12/01 07:00:06;;;;;;;38.72;20.55;;;;;;;1.04;76.30;100010.50;4949849;26;20089;-55
2020/12/01 07:02:38;;;;;;;36.35;18.77;;;;;;;1.07;76.86;100013.69;4942831;28;20137;-57
2020/12/01 07:05:29;;;;;;;36.85;19.35;;;;;;;1.06;76.82;100012.00;4946633;28;20030;-56
2020/12/01 07:07:55;;;;;;;37.40;20.75;;;;;;;1.07;76.51;100021.66;4948726;28;20547;-56
2020/12/01 07:10:28;;;;;;;36.33;20.17;;;;;;;0.96;76.40;100015.81;4955246;28;20146;-56
2020/12/01 07:13:22;;;;;;;36.25;19.48;;;;;;;0.90;77.16;100013.81;4953156;28;20717;-56
2020/12/01 07:15:49;;;;;;;41.10;19.63;;;;;;;0.97;77.33;100010.31;4949415;28;20049;-57
2020/12/01 07:18:29;;;;;;;38.78;20.10;;;;;;;0.94;76.30;100012.47;4967115;28;20038;-56
2020/12/01 07:21:01;;;;;;;37.92;20.20;;;;;;;0.97;76.96;100010.31;4945272;28;20145;-55
2020/12/01 07:23:32;;;;;;;;;;;;;;;0.93;76.17;100010.81;4942344;28;21366;-58
2020/12/01 07:26:20;;;;;;;40.45;20.08;;;;;;;0.99;77.20;100011.00;4948842;28;19918;-55
2020/12/01 07:28:49;;;;;;;37.05;18.05;;;;;;;0.91;76.56;100004.84;4970624;28;20113;-56
2020/12/01 07:31:25;;;;;;;40.65;21.75;;;;;;;0.98;76.04;100008.50;4970359;28;20052;-54
2020/12/01 07:33:57;;;;;;;44.70;22.52;;;;;;;0.99;76.41;100012.84;4970860;28;20053;-55
2020/12/01 07:36:37;;;;;;;37.33;20.08;;;;;;;1.11;76.05;100008.88;4970433;28;20142;-55
2020/12/01 07:39:09;;;;;;;34.33;19.30;;;;;;;1.08;75.80;100010.03;4980843;28;20042;-56
2020/12/01 07:42:04;;;;;;;39.25;20.92;;;;;;;1.16;75.98;100006.53;4947001;28;20515;-55
2020/12/01 07:44:47;;;;;;;36.53;20.73;;;;;;;0.98;75.82;100019.97;4943009;28;20451;-56
2020/12/01 07:47:24;;;;;;;37.03;18.67;;;;;;;0.98;75.47;100017.31;4986759;28;20499;-56
2020/12/01 07:50:03;;;;;;;44.97;22.70;;;;;;;1.08;75.83;100014.50;4970082;28;20083;-57
2020/12/01 07:52:36;;;;;;;39.65;21.10;;;;;;;1.17;75.53;100020.69;4942690;28;20039;-56
2020/12/01 07:55:06;;;;;;;37.67;21.08;;;;;;;1.11;75.29;100013.34;4956674;28;20261;-56
2020/12/01 07:57:32;;;;;;;40.13;21.95;;;;;;;1.18;75.23;100023.19;4983831;28;20495;-56
2020/12/01 08:00:00;;;;;;;36.08;18.30;;;;;;;1.14;74.69;100021.88;4946607;28;20076;-56
2020/12/01 08:02:29;;;;;;;34.20;18.85;;;;;;;1.17;74.09;100034.00;4952868;28;20057;-55
2020/12/01 08:04:59;;;;;;;36.75;20.90;;;;;;;1.19;74.32;100024.84;4950296;28;20416;-58
2020/12/01 08:07:25;;;;;;;40.90;21.55;;;;;;;1.21;74.63;100035.34;4970695;28;20050;-56
2020/12/01 08:10:10;;;;;;;33.65;19.75;;;;;;;1.14;74.96;100039.66;4954691;28;20077;-56
2020/12/01 08:12:40;;;;;;;37.20;20.30;;;;;;;1.32;73.70;100043.84;4954173;28;20038;-56
2020/12/01 08:15:06;;;;;;;37.67;20.27;;;;;;;1.37;73.83;100049.53;4972531;28;20044;-57
2020/12/01 08:17:34;;;;;;;34.53;19.98;;;;;;;1.37;73.61;100040.72;4948701;28;20275;-56
2020/12/01 08:20:03;;;;;;;35.45;17.80;;;;;;;1.32;74.31;100040.34;4955500;28;20096;-56
2020/12/01 08:22:37;;;;;;;36.40;20.75;;;;;;;1.34;73.61;100041.03;4971797;28;20037;-56
2020/12/01 08:25:07;;;;;;;36.30;19.95;;;;;;;1.42;72.65;100051.69;4956666;28;20105;-57
2020/12/01 08:28:14;;;;;;;41.72;21.50;;;;;;;1.32;73.88;100043.84;4978225;28;20042;-57
2020/12/01 08:31:05;;;;;;;39.38;20.23;;;;;;;1.29;74.55;100043.34;4990903;28;20226;-56
2020/12/01 08:34:01;;;;;;;36.97;20.65;;;;;;;1.35;73.95;100048.88;4975091;28;20037;-57
2020/12/01 08:36:48;;;;;;;35.28;19.63;;;;;;;1.42;73.22;100054.34;4965658;28;20419;-56
2020/12/01 08:39:34;;;;;;;32.00;17.38;;;;;;;1.49;73.59;100049.22;4974857;28;20061;-57
2020/12/01 08:42:03;;;;;;;41.45;19.05;;;;;;;1.56;74.35;100047.56;4958180;28;20069;-56
2020/12/01 08:45:12;;;;;;;36.15;19.40;;;;;;;1.50;74.25;100051.69;4947399;28;20038;-56
2020/12/01 08:47:40;;;;;;;36.08;16.67;;;;;;;1.45;74.87;100056.69;4914285;28;21226;-56
2020/12/01 08:50:16;;;;;;;38.33;20.00;;;;;;;1.33;76.78;100056.19;4953005;28;20121;-56
2020/12/01 08:52:44;;;;;;;39.45;19.77;;;;;;;1.42;76.85;100057.84;4952495;28;20040;-57
2020/12/01 08:55:22;;;;;;;37.60;20.00;;;;;;;1.33;77.71;100056.19;4936779;28;20046;-63
2020/12/01 08:57:59;;;;;;;39.83;22.08;;;;;;;1.26;78.08;100057.84;4972349;28;20053;-56
2020/12/01 09:00:25;;;;;;;40.22;21.20;;;;;;;1.23;78.40;100065.31;4951886;28;20364;-56
2020/12/01 09:02:51;;;;;;;32.53;17.00;;;;;;;1.22;78.58;100064.47;4971020;28;20039;-56
2020/12/01 09:05:32;;;;;;;41.05;22.38;;;;;;;1.42;77.46;100073.00;4955353;28;20535;-56
2020/12/01 09:22:21;;;;;;;35.13;18.88;;;;;;;1.85;74.82;100060.41;4991130;28;21460;-56
2020/12/01 09:24:47;;;;;;;38.03;21.63;;;;;;;1.90;73.58;100058.91;4975187;28;20084;-56
2020/12/01 09:27:15;;;;;;;35.90;20.85;;;;;;;1.86;73.78;100065.53;4971050;28;20426;-56
2020/12/01 09:29:49;;;;;;;34.58;20.50;;;;;;;2.00;73.85;100078.22;4972113;28;20038;-56
2020/12/01 09:32:20;;;;;;;35.95;18.95;;;;;;;2.07;72.41;100073.06;4975032;28;20125;-57
2020/12/01 09:34:46;;;;;;;34.70;19.08;;;;;;;1.88;72.71;100089.38;4990211;28;20049;-57
2020/12/01 09:37:13;;;;;;;36.63;18.67;;;;;;;1.96;73.73;100074.22;4990945;28;20038;-57
2020/12/01 09:39:40;;;;;;;31.02;17.02;;;;;;;1.91;72.63;100081.88;4972733;28;20050;-56
2020/12/01 09:42:11;;;;;;;33.22;18.52;;;;;;;1.96;73.30;100081.41;4989702;28;20558;-57
2020/12/01 09:50:25;;;;;;;37.40;19.88;;;;;;;2.04;74.03;100082.22;4948504;28;20120;-56
2020/12/01 09:58:12;;;;;;;38.20;20.73;;;;;;;2.01;74.69;100079.88;4987855;28;20034;-56
2020/12/01 10:13:39;;;;;;;38.83;19.42;;;;;;;1.93;74.45;100079.91;4987251;28;20053;-56
2020/12/01 10:25:13;;;;;;;31.40;16.17;;;;;;;2.20;72.44;100070.69;4989455;28;20041;-57
2020/12/01 10:27:25;;;;;;;39.05;17.90;;;;;;;2.21;72.63;100076.84;4989139;28;20045;-56
2020/12/01 10:33:54;;;;;;;28.73;17.35;;;;;;;2.16;72.25;100061.38;5007130;28;20491;-57
2020/12/01 10:37:33;;;;;;;31.60;17.05;;;;;;;2.29;72.78;100068.88;4989573;28;20046;-57
2020/12/01 10:39:58;;;;;;;28.38;16.33;;;;;;;2.25;72.38;100083.53;4973298;28;20042;-57
2020/12/01 10:42:24;;;;;;;32.92;18.08;;;;;;;2.19;71.85;100077.84;4973414;28;20041;-56
2020/12/01 10:44:49;;;;;;;30.70;17.30;;;;;;;2.30;71.64;100078.53;4973953;28;20442;-56
2020/12/01 10:47:15;;;;;;;30.42;18.48;;;;;;;2.32;71.98;100082.69;4972046;28;20506;-56
2020/12/01 10:49:40;;;;;;;34.40;18.33;;;;;;;2.41;72.59;100088.88;4989738;28;20044;-56
2020/12/01 10:52:06;;;;;;;30.63;17.23;;;;;;;2.49;71.72;100075.50;4973190;28;20403;-56
2020/12/01 10:54:32;;;;;;;33.47;17.38;;;;;;;2.34;71.48;100078.00;4972410;28;20118;-56
2020/12/01 10:56:58;;;;;;;29.98;18.10;;;;;;;2.33;72.81;100079.00;4973250;28;20057;-56
2020/12/01 10:59:24;;;;;;;33.10;17.33;;;;;;;2.14;72.51;100076.72;4973266;28;20411;-57
2020/12/01 11:01:51;;;;;;;30.10;15.82;;;;;;;2.19;73.19;100079.72;4973337;28;20038;-56
2020/12/01 11:04:17;;;;;;;29.55;17.83;;;;;;;2.21;72.27;100079.53;4974035;28;20042;-56
2020/12/01 11:06:43;;;;;;;36.83;18.42;;;;;;;2.18;71.80;100078.88;4973479;28;20045;-56
2020/12/01 11:09:10;;;;;;;31.25;17.08;;;;;;;2.27;73.04;100087.72;4988098;28;20046;-56
2020/12/01 11:11:36;;;;;;;29.88;17.00;;;;;;;2.09;72.32;100087.88;4973101;28;20049;-55
2020/12/01 11:14:02;;;;;;;29.33;15.68;;;;;;;2.33;72.75;100078.19;4972245;28;20033;-56
2020/12/01 11:16:29;;;;;;;25.02;13.52;;;;;;;2.34;72.85;100078.00;4973148;28;20164;-55
2020/12/01 11:18:55;;;;;;;23.75;11.35;;;;;;;2.12;72.99;100070.72;4989488;28;20380;-55
2020/12/01 11:21:21;;;;;;;30.10;16.70;;;;;;;2.27;73.56;100085.03;4972553;28;20070;-55
2020/12/01 11:23:48;;;;;;;26.98;14.93;;;;;;;2.21;73.24;100077.69;4989738;28;20125;-56
2020/12/01 11:26:16;;;;;;;30.88;15.95;;;;;;;2.29;73.55;100082.22;4989358;28;20343;-57
2020/12/01 11:28:42;;;;;;;24.92;13.13;;;;;;;2.15;72.28;100078.38;4972927;28;20056;-56
2020/12/01 11:31:08;;;;;;;27.50;16.38;;;;;;;2.33;71.88;100078.19;4972818;28;20041;-56
2020/12/01 11:33:34;;;;;;;30.83;17.40;;;;;;;2.40;72.28;100081.84;4973232;28;20038;-55
2020/12/01 11:35:59;;;;;;;29.55;13.18;;;;;;;2.26;72.45;100083.38;4939473;28;20036;-56
2020/12/01 11:38:25;;;;;;;35.72;17.88;;;;;;;2.21;73.29;100085.69;4953625;28;20362;-56
2020/12/01 11:40:52;;;;;;;29.92;16.25;;;;;;;2.30;71.99;100083.88;4950142;28;20047;-56
2020/12/01 11:43:18;;;;;;;26.58;14.18;;;;;;;2.31;73.02;100080.22;4935275;29;20126;-57
2020/12/01 11:45:44;;;;;;;33.88;17.50;;;;;;;2.44;72.47;100085.84;4953609;28;20118;-56
2020/12/01 11:48:09;;;;;;;29.73;17.35;;;;;;;2.42;73.06;100085.19;4937328;28;20408;-56
2020/12/01 11:50:34;;;;;;;25.65;14.32;;;;;;;2.31;73.06;100077.53;4953338;28;20045;-56
2020/12/01 11:53:00;;;;;;;26.60;14.80;;;;;;;2.32;72.99;100085.34;4960259;28;20042;-56
2020/12/01 11:55:25;;;;;;;28.63;16.80;;;;;;;2.27;72.59;100078.88;4971826;28;20030;-55
2020/12/01 11:57:51;;;;;;;28.73;16.15;;;;;;;2.48;72.62;100080.00;4951454;28;20488;-56
2020/12/01 12:00:21;;;;;;;34.42;17.63;;;;;;;2.44;72.16;100080.50;4973717;28;20057;-57
2020/12/01 12:02:47;;;;;;;31.13;18.23;;;;;;;2.42;71.57;100085.19;4974157;28;20038;-55
2020/12/01 12:05:12;;;;;;;29.35;16.95;;;;;;;2.46;71.22;100086.50;4990192;28;20116;-55
2020/12/01 12:07:38;;;;;;;33.00;17.08;;;;;;;2.48;71.85;100087.16;4963901;28;20519;-55
2020/12/01 12:10:04;;;;;;;22.15;13.07;;;;;;;2.42;72.21;100087.88;4952256;28;20038;-56
2020/12/01 12:12:30;;;;;;;30.95;15.23;;;;;;;2.46;72.16;100076.66;4953486;28;20042;-55
2020/12/01 12:14:56;;;;;;;24.50;15.68;;;;;;;2.47;71.94;100088.16;4963760;28;20291;-56
2020/12/01 12:17:21;;;;;;;29.70;16.45;;;;;;;2.39;72.86;100085.53;4954317;28;20053;-56
2020/12/01 12:19:47;;;;;;;28.60;15.68;;;;;;;2.41;72.36;100076.34;4968717;28;20483;-57
2020/12/01 12:22:12;;;;;;;26.35;13.90;;;;;;;2.25;72.02;100083.53;4969634;28;20503;-57
2020/12/01 12:24:38;;;;;;;28.17;15.90;;;;;;;2.46;73.99;100079.31;4972263;28;20046;-58
2020/12/01 12:27:03;;;;;;;32.78;17.73;;;;;;;2.50;71.87;100087.84;4972201;28;20050;-56
2020/12/01 12:29:28;;;;;;;25.70;13.43;;;;;;;2.52;72.53;100083.16;4955457;28;20042;-55
2020/12/01 12:31:54;;;;;;;31.65;17.23;;;;;;;2.45;72.86;100093.66;4956026;28;20041;-55
2020/12/01 12:34:19;;;;;;;32.72;16.48;;;;;;;2.53;72.52;100088.34;4971682;28;20051;-56
2020/12/01 12:36:45;;;;;;;32.25;16.48;;;;;;;2.72;72.53;100083.59;4972495;28;20045;-56
2020/12/01 12:39:12;;;;;;;28.05;16.42;;;;;;;2.65;71.86;100087.97;4970550;28;20038;-56
2020/12/01 12:41:39;;;;;;;30.25;17.45;;;;;;;2.65;71.22;100088.81;4965289;28;20043;-56
2020/12/01 12:44:06;;;;;;;29.45;18.30;;;;;;;2.75;72.51;100096.63;4951804;28;20058;-56
2020/12/01 12:46:32;;;;;;;30.77;15.93;;;;;;;2.69;71.87;100091.94;4953751;28;20043;-57
2020/12/01 12:48:57;;;;;;;33.60;17.90;;;;;;;2.70;72.26;100088.28;4951618;28;20105;-56
2020/12/01 12:51:23;;;;;;;32.88;16.20;;;;;;;2.58;71.66;100103.81;4967575;28;20041;-56
2020/12/01 12:53:48;;;;;;;34.20;20.30;;;;;;;2.45;72.07;100104.34;4972913;28;20038;-56
2020/12/01 12:56:14;;;;;;;30.08;16.40;;;;;;;2.45;73.27;100099.00;4972383;28;20061;-56
2020/12/01 12:58:40;;;;;;;26.95;14.63;;;;;;;2.37;72.42;100100.84;4968131;28;20054;-56
2020/12/01 13:01:07;;;;;;;35.97;18.40;;;;;;;2.40;73.14;100101.38;4972287;28;20102;-56
2020/12/01 13:03:33;;;;;;;32.20;17.20;;;;;;;2.38;72.72;100105.19;4968746;28;20042;-56
2020/12/01 13:06:00;;;;;;;33.10;18.05;;;;;;;2.36;73.40;100091.19;4954100;28;20045;-57
2020/12/01 13:08:26;;;;;;;37.45;19.13;;;;;;;2.36;73.00;100102.69;4955868;28;20042;-56
2020/12/01 13:10:53;;;;;;;36.17;18.98;;;;;;;2.41;73.22;100094.19;4964109;28;20038;-56
2020/12/01 13:13:19;;;;;;;36.47;19.55;;;;;;;2.36;73.39;100110.69;4972448;28;20475;-57
2020/12/01 13:15:45;;;;;;;39.10;20.40;;;;;;;2.53;72.75;100108.84;4991343;28;20076;-55
2020/12/01 13:18:12;;;;;;;36.60;19.58;;;;;;;2.50;74.16;100109.19;4987899;28;20045;-56
2020/12/01 13:20:39;;;;;;;36.20;20.13;;;;;;;2.53;72.50;100123.03;4973616;28;20041;-56
2020/12/01 13:23:05;;;;;;;38.72;20.02;;;;;;;2.48;73.69;100119.19;4967481;28;20505;-55
2020/12/01 13:25:31;;;;;;;38.38;21.40;;;;;;;2.34;73.12;100125.19;4972755;28;20096;-56
2020/12/01 13:27:58;;;;;;;35.03;18.73;;;;;;;2.34;73.03;100126.03;4989748;28;20045;-55
2020/12/01 13:30:24;;;;;;;42.47;21.65;;;;;;;2.37;73.38;100131.03;4968552;28;20057;-56
2020/12/01 13:32:50;;;;;;;44.22;23.67;;;;;;;2.38;73.00;100134.53;4987877;28;20038;-56
2020/12/01 13:35:17;;;;;;;39.95;19.65;;;;;;;2.29;73.29;100132.88;4975775;28;20080;-58
2020/12/01 13:37:43;;;;;;;41.38;22.13;;;;;;;2.18;72.89;100139.41;4972188;28;20079;-58
2020/12/01 13:40:15;;;;;;;44.55;21.70;;;;;;;2.20;73.63;100140.03;4989243;28;20067;-55
2020/12/01 13:42:43;;;;;;;38.83;22.38;;;;;;;2.15;73.32;100137.06;4984853;28;20073;-56
2020/12/01 13:45:11;;;;;;;39.15;22.52;;;;;;;2.28;73.19;100153.41;4969907;28;20052;-56
2020/12/01 13:47:42;;;;;;;38.17;21.40;;;;;;;2.24;73.67;100148.56;4972628;28;20046;-56
2020/12/01 13:50:10;;;;;;;39.85;21.98;;;;;;;2.35;73.49;100145.53;4972444;28;20502;-57
2020/12/01 13:52:37;;;;;;;39.22;20.63;;;;;;;2.22;73.61;100146.03;4988113;28;20497;-56
2020/12/01 13:55:04;;;;;;;39.35;21.05;;;;;;;2.10;72.33;100156.22;4972709;28;20041;-57
2020/12/01 13:57:31;;;;;;;39.05;21.23;;;;;;;2.21;73.28;100152.38;4972052;28;20066;-57
2020/12/01 13:59:56;;;;;;;39.20;22.00;;;;;;;2.19;73.41;100157.06;4975910;28;20615;-56
2020/12/01 14:02:22;;;;;;;43.20;20.65;;;;;;;2.25;73.76;100159.06;4952809;28;20053;-58
2020/12/01 14:04:51;;;;;;;44.92;23.83;;;;;;;2.21;73.38;100156.88;4981380;28;20047;-56
2020/12/01 14:07:17;;;;;;;43.55;23.67;;;;;;;2.32;73.05;100164.53;4968625;28;20039;-57
2020/12/01 14:09:42;;;;;;;44.78;23.98;;;;;;;2.21;72.83;100167.53;4964167;28;20076;-57
2020/12/01 14:12:08;;;;;;;49.42;23.75;;;;;;;2.19;72.95;100170.41;4983061;28;20038;-56
2020/12/01 14:14:34;;;;;;;42.70;21.90;;;;;;;2.12;72.57;100167.56;4983170;28;20118;-56
2020/12/01 14:17:03;;;;;;;41.47;22.83;;;;;;;2.17;72.79;100172.41;4965689;28;20443;-57
2020/12/01 14:19:28;;;;;;;44.90;24.45;;;;;;;2.23;72.74;100182.38;4958422;28;20038;-56
2020/12/01 14:21:54;;;;;;;48.40;22.48;;;;;;;2.29;72.36;100186.25;4964731;28;20495;-57
2020/12/01 14:24:19;;;;;;;43.80;24.25;;;;;;;2.26;72.90;100178.56;4950207;28;20053;-56
2020/12/01 14:26:44;;;;;;;39.10;21.30;;;;;;;2.15;72.30;100191.22;4965428;28;20046;-56
2020/12/01 14:29:11;;;;;;;38.65;21.52;;;;;;;2.20;72.32;100188.03;4952717;28;20042;-55
2020/12/01 14:31:38;;;;;;;43.22;21.85;;;;;;;2.17;73.36;100189.25;4959068;28;20101;-57
2020/12/01 14:34:03;;;;;;;45.70;24.45;;;;;;;2.11;71.70;100192.53;4965154;28;20034;-57
2020/12/01 14:36:32;;;;;;;42.50;23.90;;;;;;;2.23;72.24;100189.56;4952724;28;20089;-56
2020/12/01 14:39:00;;;;;;;41.45;23.10;;;;;;;2.20;72.20;100193.38;4950173;28;20121;-56
2020/12/01 14:41:27;;;;;;;39.45;22.40;;;;;;;2.17;71.47;100194.56;4949833;28;20503;-57
2020/12/01 14:43:52;;;;;;;41.70;21.17;;;;;;;2.27;72.78;100199.75;4969246;28;20054;-56
2020/12/01 14:46:21;;;;;;;39.83;20.77;;;;;;;2.23;71.45;100198.38;4953671;28;20042;-56
2020/12/01 14:49:14;;;;;;;45.00;22.42;;;;;;;2.21;72.69;100205.72;4941148;28;20049;-56
2020/12/01 14:51:40;;;;;;;41.78;22.15;;;;;;;2.18;72.07;100206.06;4954133;28;20121;-55
2020/12/01 14:54:16;;;;;;;43.92;22.85;;;;;;;2.16;72.85;100205.41;4983465;28;20504;-56
2020/12/01 14:56:58;;;;;;;44.67;22.92;;;;;;;2.24;71.93;100217.91;4962865;28;20046;-57
2020/12/01 14:59:49;;;;;;;38.63;20.95;;;;;;;2.18;71.55;100217.56;4971364;28;20641;-56
2020/12/01 15:02:27;;;;;;;44.63;22.13;;;;;;;2.20;71.85;100209.38;4952412;28;20038;-56
2020/12/01 15:05:36;;;;;;;36.63;19.92;;;;;;;2.17;71.99;100209.75;4969286;28;20075;-56
2020/12/01 15:08:23;;;;;;;40.58;22.17;;;;;;;2.09;72.43;100223.88;4969376;28;20038;-57
2020/12/01 15:11:06;;;;;;;41.38;22.25;;;;;;;2.01;72.15;100218.53;4953963;28;20124;-56
2020/12/01 15:13:38;;;;;;;36.60;20.52;;;;;;;2.05;72.34;100216.38;4952368;28;20699;-55
2020/12/01 15:16:08;;;;;;;44.97;23.70;;;;;;;1.97;72.33;100217.19;4952811;28;20049;-57
2020/12/01 15:18:33;;;;;;;43.10;22.20;;;;;;;2.00;72.34;100224.03;4970485;28;20074;-55
2020/12/01 15:21:02;;;;;;;51.60;27.73;;;;;;;2.02;72.29;100230.88;4953722;28;20145;-56
2020/12/01 15:23:45;;;;;;;56.97;30.80;;;;;;;2.02;71.99;100230.88;4953601;28;20444;-58
2020/12/01 15:26:10;;;;;;;40.53;23.08;;;;;;;2.06;72.43;100229.56;4953704;28;20034;-56
2020/12/01 15:28:46;;;;;;;40.10;21.88;;;;;;;2.08;72.22;100234.69;4951117;28;20049;-59
2020/12/01 15:31:17;;;;;;;41.88;22.27;;;;;;;2.08;72.58;100246.19;4965995;28;20116;-58
2020/12/01 15:33:46;;;;;;;42.60;22.70;;;;;;;2.06;72.63;100244.72;4967121;28;20516;-58
2020/12/01 15:36:17;;;;;;;45.15;22.10;;;;;;;2.06;72.78;100244.72;4953774;28;20044;-56
2020/12/01 15:38:42;;;;;;;41.97;22.55;;;;;;;1.94;72.44;100246.03;4969829;28;20523;-58
2020/12/01 15:41:11;;;;;;;36.05;18.67;;;;;;;1.99;71.97;100243.69;4969507;28;20049;-55
2020/12/01 15:43:37;;;;;;;42.30;23.20;;;;;;;2.02;72.05;100246.03;4954128;28;20562;-55
2020/12/01 15:46:20;;;;;;;43.22;22.33;;;;;;;1.94;72.49;100256.69;4952975;28;20073;-55
2020/12/01 15:48:48;;;;;;;39.25;21.25;;;;;;;2.02;72.73;100265.53;4970177;28;20224;-55
2020/12/01 15:51:33;;;;;;;41.38;22.83;;;;;;;2.01;72.08;100260.34;4968000;28;20138;-55
2020/12/01 15:53:59;;;;;;;43.85;22.80;;;;;;;2.04;72.73;100265.38;4969917;28;20039;-56
2020/12/01 15:57:14;;;;;;;45.67;24.00;;;;;;;2.04;71.92;100268.03;4978067;28;20169;-56
2020/12/01 16:00:01;;;;;;;46.60;23.42;;;;;;;2.00;72.02;100269.34;4888151;29;20055;-56
2020/12/01 16:03:03;;;;;;;46.88;24.58;;;;;;;2.00;72.17;100274.69;4970080;28;20042;-56
2020/12/01 16:05:51;;;;;;;45.33;23.77;;;;;;;2.05;72.13;100278.56;4950158;28;20093;-56
2020/12/01 16:08:43;;;;;;;46.80;23.58;;;;;;;2.18;71.61;100281.59;4971308;28;20117;-55
2020/12/01 16:11:38;;;;;;;45.13;23.38;;;;;;;2.21;70.57;100283.06;4966563;28;20388;-56
2020/12/01 16:14:18;;;;;;;40.28;21.90;;;;;;;2.21;71.47;100291.06;4973059;28;20046;-55
2020/12/01 16:16:50;;;;;;;45.25;23.73;;;;;;;2.19;71.29;100283.22;4972335;28;20113;-55
2020/12/01 16:19:41;;;;;;;40.05;22.00;;;;;;;2.02;71.14;100292.19;4950077;28;20069;-56
2020/12/01 16:22:07;;;;;;;43.88;22.20;;;;;;;2.09;70.84;100293.22;4979993;28;20490;-56
2020/12/01 16:24:36;;;;;;;43.85;23.13;;;;;;;2.04;71.85;100302.72;4958405;28;20656;-56
2020/12/01 16:27:08;;;;;;;42.40;21.00;;;;;;;2.09;71.71;100311.03;4944870;28;20049;-55
2020/12/01 16:30:06;;;;;;;39.33;21.42;;;;;;;2.13;70.98;100313.22;4972123;28;20471;-56
2020/12/01 16:32:33;;;;;;;39.67;20.42;;;;;;;2.08;71.61;100310.19;4971375;28;20038;-56
2020/12/01 16:35:06;;;;;;;40.22;21.10;;;;;;;2.07;71.32;100315.72;4955933;28;20042;-56
2020/12/01 16:37:31;;;;;;;38.50;20.02;;;;;;;2.13;71.51;100325.72;4972097;28;20038;-55
2020/12/01 16:40:20;;;;;;;43.80;23.45;;;;;;;2.20;71.46;100326.75;4954940;28;20423;-57
2020/12/01 16:42:45;;;;;;;40.83;21.27;;;;;;;2.36;70.32;100332.13;4952281;28;20555;-55
2020/12/01 16:45:45;;;;;;;38.22;20.63;;;;;;;2.10;71.16;100332.22;4940204;28;20129;-55
2020/12/01 16:48:32;;;;;;;43.75;21.67;;;;;;;2.26;71.35;100335.94;4967073;28;20510;-57
2020/12/01 16:51:17;;;;;;;37.35;20.00;;;;;;;2.29;70.54;100347.13;4968683;28;20130;-55
2020/12/01 16:54:38;;;;;;;39.58;20.02;;;;;;;2.40;70.83;100349.50;4945983;28;20488;-58
2020/12/01 16:57:18;;;;;;;37.80;20.23;;;;;;;2.26;71.01;100358.13;4893072;29;20127;-58
2020/12/01 16:59:47;;;;;;;41.95;21.50;;;;;;;2.33;70.87;100350.28;4958851;28;20049;-57
2020/12/01 17:02:51;;;;;;;40.15;20.65;;;;;;;2.25;71.10;100359.13;4980803;28;20066;-58
2020/12/01 17:05:26;;;;;;;39.00;20.05;;;;;;;2.25;71.26;100363.63;4952800;28;20054;-58
2020/12/01 17:07:53;;;;;;;39.83;21.95;;;;;;;2.13;71.60;100365.75;4962131;28;20066;-58
2020/12/01 17:10:26;;;;;;;38.30;20.67;;;;;;;2.16;71.11;100371.59;4955602;28;20319;-57
2020/12/01 17:13:16;;;;;;;40.20;20.48;;;;;;;2.31;71.51;100357.66;4990269;28;20110;-58
2020/12/01 17:15:42;;;;;;;40.10;21.05;;;;;;;2.27;70.52;100374.97;4973536;28;20069;-59
2020/12/01 17:18:09;;;;;;;42.03;22.25;;;;;;;2.07;71.00;100380.56;4962075;28;20042;-58
2020/12/01 17:20:37;;;;;;;41.63;21.73;;;;;;;2.11;71.04;100376.56;4958711;28;20038;-59
2020/12/01 17:23:03;;;;;;;44.42;23.38;;;;;;;2.07;70.79;100380.56;4968666;28;20042;-57
2020/12/01 17:25:38;;;;;;;41.50;21.30;;;;;;;2.04;71.16;100385.38;4957588;28;20037;-54
2020/12/01 17:28:25;;;;;;;38.65;21.50;;;;;;;2.05;71.56;100385.22;4953818;28;20045;-58
2020/12/01 17:31:28;;;;;;;46.13;23.40;;;;;;;1.99;71.52;100385.84;4952117;28;20503;-57
2020/12/01 17:34:29;;;;;;;43.10;22.63;;;;;;;2.11;71.70;100386.38;4949339;28;20097;-58
2020/12/01 17:37:02;;;;;;;46.75;23.13;;;;;;;2.09;71.02;100399.88;4966680;28;20049;-58
2020/12/01 17:39:39;;;;;;;42.53;22.75;;;;;;;2.14;71.44;100394.06;4952190;28;20046;-58
2020/12/01 17:42:24;;;;;;;40.05;22.38;;;;;;;2.12;71.72;100399.56;4952655;28;20038;-57
2020/12/01 17:45:15;;;;;;;48.20;24.45;;;;;;;2.17;71.22;100397.28;4952790;28;20050;-57